sensor_id;sensor_type;location;lat;lon;timestamp;temperature;humidity
14409;DHT22;7289;50.706;4.992;2023-06-04T00:01:22;12.10;92.40
14409;DHT22;7289;50.706;4.992;2023-06-04T00:03:52;12.00;92.80
14409;DHT22;7289;50.706;4.992;2023-06-04T00:06:21;12.00;93.30
14409;DHT22;7289;50.706;4.992;2023-06-04T00:08:49;11.90;93.10
14409;DHT22;7289;50.706;4.992;2023-06-04T00:11:17;11.90;93.30
14409;DHT22;7289;50.706;4.992;2023-06-04T00:13:46;11.80;93.40
14409;DHT22;7289;50.706;4.992;2023-06-04T00:16:15;11.80;93.60
14409;DHT22;7289;50.706;4.992;2023-06-04T00:18:43;11.60;93.70
14409;DHT22;7289;50.706;4.992;2023-06-04T00:21:13;11.60;93.70
14409;DHT22;7289;50.706;4.992;2023-06-04T00:23:42;11.60;94.50
14409;DHT22;7289;50.706;4.992;2023-06-04T00:26:10;11.70;94.70
14409;DHT22;7289;50.706;4.992;2023-06-04T00:28:42;11.70;94.90
14409;DHT22;7289;50.706;4.992;2023-06-04T00:31:10;11.60;94.80
14409;DHT22;7289;50.706;4.992;2023-06-04T00:33:39;11.40;94.60
14409;DHT22;7289;50.706;4.992;2023-06-04T00:36:08;11.40;94.70
14409;DHT22;7289;50.706;4.992;2023-06-04T00:38:38;11.30;94.80
14409;DHT22;7289;50.706;4.992;2023-06-04T00:41:06;11.20;94.90
14409;DHT22;7289;50.706;4.992;2023-06-04T00:43:35;11.10;94.90
14409;DHT22;7289;50.706;4.992;2023-06-04T00:46:05;11.10;95.00
14409;DHT22;7289;50.706;4.992;2023-06-04T00:48:34;11.10;95.10
14409;DHT22;7289;50.706;4.992;2023-06-04T00:51:04;11.10;95.00
14409;DHT22;7289;50.706;4.992;2023-06-04T00:53:32;11.00;94.90
14409;DHT22;7289;50.706;4.992;2023-06-04T00:56:03;10.90;94.90
14409;DHT22;7289;50.706;4.992;2023-06-04T00:58:36;10.80;95.10
14409;DHT22;7289;50.706;4.992;2023-06-04T01:01:10;10.80;95.10
14409;DHT22;7289;50.706;4.992;2023-06-04T01:03:43;10.70;95.20
14409;DHT22;7289;50.706;4.992;2023-06-04T01:06:18;10.70;95.30
14409;DHT22;7289;50.706;4.992;2023-06-04T01:08:49;10.60;95.40
14409;DHT22;7289;50.706;4.992;2023-06-04T01:11:33;10.60;95.50
14409;DHT22;7289;50.706;4.992;2023-06-04T01:14:02;10.60;95.50
14409;DHT22;7289;50.706;4.992;2023-06-04T01:16:35;10.50;95.30
14409;DHT22;7289;50.706;4.992;2023-06-04T01:19:19;10.50;95.40
14409;DHT22;7289;50.706;4.992;2023-06-04T01:21:52;10.40;95.50
14409;DHT22;7289;50.706;4.992;2023-06-04T01:24:25;10.40;95.90
14409;DHT22;7289;50.706;4.992;2023-06-04T01:26:57;10.30;96.10
14409;DHT22;7289;50.706;4.992;2023-06-04T01:29:25;10.30;96.10
14409;DHT22;7289;50.706;4.992;2023-06-04T01:31:57;10.30;96.20
14409;DHT22;7289;50.706;4.992;2023-06-04T01:34:26;10.30;96.50
14409;DHT22;7289;50.706;4.992;2023-06-04T01:36:54;10.30;96.70
14409;DHT22;7289;50.706;4.992;2023-06-04T01:39:23;10.20;96.80
14409;DHT22;7289;50.706;4.992;2023-06-04T01:41:51;10.20;96.70
14409;DHT22;7289;50.706;4.992;2023-06-04T01:44:21;10.20;96.80
14409;DHT22;7289;50.706;4.992;2023-06-04T01:46:49;10.10;96.60
14409;DHT22;7289;50.706;4.992;2023-06-04T01:49:17;10.10;96.70
14409;DHT22;7289;50.706;4.992;2023-06-04T01:51:46;10.00;96.60
14409;DHT22;7289;50.706;4.992;2023-06-04T01:54:14;10.00;96.70
14409;DHT22;7289;50.706;4.992;2023-06-04T01:56:43;9.90;96.70
14409;DHT22;7289;50.706;4.992;2023-06-04T01:59:12;9.90;96.70
14409;DHT22;7289;50.706;4.992;2023-06-04T02:01:44;9.80;96.70
14409;DHT22;7289;50.706;4.992;2023-06-04T02:04:13;9.80;96.70
14409;DHT22;7289;50.706;4.992;2023-06-04T02:06:41;9.70;96.80
14409;DHT22;7289;50.706;4.992;2023-06-04T02:09:09;9.70;96.80
14409;DHT22;7289;50.706;4.992;2023-06-04T02:11:37;9.70;96.90
14409;DHT22;7289;50.706;4.992;2023-06-04T02:14:06;9.70;97.00
14409;DHT22;7289;50.706;4.992;2023-06-04T02:16:34;9.70;97.10
14409;DHT22;7289;50.706;4.992;2023-06-04T02:19:04;9.70;97.50
14409;DHT22;7289;50.706;4.992;2023-06-04T02:21:33;9.70;97.70
14409;DHT22;7289;50.706;4.992;2023-06-04T02:24:02;9.60;98.10
14409;DHT22;7289;50.706;4.992;2023-06-04T02:26:30;9.70;98.20
14409;DHT22;7289;50.706;4.992;2023-06-04T02:28:59;9.60;98.10
14409;DHT22;7289;50.706;4.992;2023-06-04T02:31:27;9.60;98.00
14409;DHT22;7289;50.706;4.992;2023-06-04T02:33:56;9.50;98.20
14409;DHT22;7289;50.706;4.992;2023-06-04T02:36:26;9.50;98.20
14409;DHT22;7289;50.706;4.992;2023-06-04T02:38:54;9.50;98.50
14409;DHT22;7289;50.706;4.992;2023-06-04T02:41:23;9.50;98.60
14409;DHT22;7289;50.706;4.992;2023-06-04T02:43:52;9.50;98.60
14409;DHT22;7289;50.706;4.992;2023-06-04T02:46:20;9.50;98.70
14409;DHT22;7289;50.706;4.992;2023-06-04T02:48:48;9.40;98.60
14409;DHT22;7289;50.706;4.992;2023-06-04T02:51:17;9.40;98.50
14409;DHT22;7289;50.706;4.992;2023-06-04T02:53:46;9.30;98.60
14409;DHT22;7289;50.706;4.992;2023-06-04T02:56:15;9.30;98.60
14409;DHT22;7289;50.706;4.992;2023-06-04T02:58:50;9.20;98.50
14409;DHT22;7289;50.706;4.992;2023-06-04T03:01:19;9.20;98.50
14409;DHT22;7289;50.706;4.992;2023-06-04T03:03:48;9.20;98.50
14409;DHT22;7289;50.706;4.992;2023-06-04T03:06:18;9.10;98.60
14409;DHT22;7289;50.706;4.992;2023-06-04T03:08:49;9.10;98.60
14409;DHT22;7289;50.706;4.992;2023-06-04T03:11:18;9.10;99.10
14409;DHT22;7289;50.706;4.992;2023-06-04T03:13:48;9.00;99.20
14409;DHT22;7289;50.706;4.992;2023-06-04T03:16:16;9.00;99.20
14409;DHT22;7289;50.706;4.992;2023-06-04T03:18:44;9.10;99.50
14409;DHT22;7289;50.706;4.992;2023-06-04T03:21:13;9.10;99.50
14409;DHT22;7289;50.706;4.992;2023-06-04T03:23:42;9.10;99.50
14409;DHT22;7289;50.706;4.992;2023-06-04T03:26:12;9.20;99.80
14409;DHT22;7289;50.706;4.992;2023-06-04T03:28:41;9.10;99.70
14409;DHT22;7289;50.706;4.992;2023-06-04T03:31:12;9.10;99.60
14409;DHT22;7289;50.706;4.992;2023-06-04T03:33:42;9.00;99.60
14409;DHT22;7289;50.706;4.992;2023-06-04T03:36:10;9.00;99.50
14409;DHT22;7289;50.706;4.992;2023-06-04T03:38:39;9.00;99.50
14409;DHT22;7289;50.706;4.992;2023-06-04T03:41:08;9.00;99.50
14409;DHT22;7289;50.706;4.992;2023-06-04T03:43:38;8.90;99.60
14409;DHT22;7289;50.706;4.992;2023-06-04T03:46:09;8.80;99.50
14409;DHT22;7289;50.706;4.992;2023-06-04T03:48:37;8.90;99.70
14409;DHT22;7289;50.706;4.992;2023-06-04T03:51:06;8.80;99.80
14409;DHT22;7289;50.706;4.992;2023-06-04T03:53:35;8.80;99.80
14409;DHT22;7289;50.706;4.992;2023-06-04T03:56:03;8.90;99.90
14409;DHT22;7289;50.706;4.992;2023-06-04T03:58:33;8.90;99.90
14409;DHT22;7289;50.706;4.992;2023-06-04T04:01:05;8.90;99.90
14409;DHT22;7289;50.706;4.992;2023-06-04T04:03:34;8.90;99.70
14409;DHT22;7289;50.706;4.992;2023-06-04T04:06:04;8.90;99.70
14409;DHT22;7289;50.706;4.992;2023-06-04T04:08:32;8.90;99.60
14409;DHT22;7289;50.706;4.992;2023-06-04T04:11:01;8.90;99.90
14409;DHT22;7289;50.706;4.992;2023-06-04T04:13:30;9.00;99.90
14409;DHT22;7289;50.706;4.992;2023-06-04T04:15:58;9.00;99.90
14409;DHT22;7289;50.706;4.992;2023-06-04T04:18:31;9.10;99.90
14409;DHT22;7289;50.706;4.992;2023-06-04T04:21:00;9.10;99.90
14409;DHT22;7289;50.706;4.992;2023-06-04T04:23:29;9.10;99.90
14409;DHT22;7289;50.706;4.992;2023-06-04T04:25:58;9.10;99.90
14409;DHT22;7289;50.706;4.992;2023-06-04T04:28:30;9.20;99.90
14409;DHT22;7289;50.706;4.992;2023-06-04T04:31:00;9.20;99.90
14409;DHT22;7289;50.706;4.992;2023-06-04T04:33:35;9.30;99.90
14409;DHT22;7289;50.706;4.992;2023-06-04T04:36:09;9.30;99.90
14409;DHT22;7289;50.706;4.992;2023-06-04T04:38:46;9.40;99.90
14409;DHT22;7289;50.706;4.992;2023-06-04T04:41:27;9.40;99.80
14409;DHT22;7289;50.706;4.992;2023-06-04T04:44:02;9.50;99.80
14409;DHT22;7289;50.706;4.992;2023-06-04T04:46:31;9.60;99.90
14409;DHT22;7289;50.706;4.992;2023-06-04T04:49:02;9.60;99.90
14409;DHT22;7289;50.706;4.992;2023-06-04T04:51:30;9.70;99.90
14409;DHT22;7289;50.706;4.992;2023-06-04T04:53:58;9.80;99.80
14409;DHT22;7289;50.706;4.992;2023-06-04T04:56:34;9.90;99.80
14409;DHT22;7289;50.706;4.992;2023-06-04T04:59:04;10.00;99.80
14409;DHT22;7289;50.706;4.992;2023-06-04T05:01:32;10.10;99.70
14409;DHT22;7289;50.706;4.992;2023-06-04T05:04:04;10.20;99.70
14409;DHT22;7289;50.706;4.992;2023-06-04T05:06:37;10.20;99.60
14409;DHT22;7289;50.706;4.992;2023-06-04T05:09:06;10.30;99.30
14409;DHT22;7289;50.706;4.992;2023-06-04T05:11:36;10.40;99.00
14409;DHT22;7289;50.706;4.992;2023-06-04T05:14:04;10.50;98.70
14409;DHT22;7289;50.706;4.992;2023-06-04T05:16:35;10.60;98.20
14409;DHT22;7289;50.706;4.992;2023-06-04T05:19:11;10.80;98.20
14409;DHT22;7289;50.706;4.992;2023-06-04T05:21:41;11.00;97.80
14409;DHT22;7289;50.706;4.992;2023-06-04T05:24:10;11.10;97.60
14409;DHT22;7289;50.706;4.992;2023-06-04T05:26:39;11.20;97.20
14409;DHT22;7289;50.706;4.992;2023-06-04T05:29:14;11.30;97.00
14409;DHT22;7289;50.706;4.992;2023-06-04T05:31:44;11.50;96.80
14409;DHT22;7289;50.706;4.992;2023-06-04T05:34:16;11.70;96.90
14409;DHT22;7289;50.706;4.992;2023-06-04T05:36:47;11.90;96.70
14409;DHT22;7289;50.706;4.992;2023-06-04T05:39:17;12.00;96.80
14409;DHT22;7289;50.706;4.992;2023-06-04T05:42:00;12.10;96.10
14409;DHT22;7289;50.706;4.992;2023-06-04T05:44:29;12.10;95.90
14409;DHT22;7289;50.706;4.992;2023-06-04T05:46:57;12.20;96.00
14409;DHT22;7289;50.706;4.992;2023-06-04T05:49:28;12.30;95.90
14409;DHT22;7289;50.706;4.992;2023-06-04T05:51:58;12.50;96.10
14409;DHT22;7289;50.706;4.992;2023-06-04T05:54:28;12.40;95.70
14409;DHT22;7289;50.706;4.992;2023-06-04T05:56:57;12.50;96.20
14409;DHT22;7289;50.706;4.992;2023-06-04T05:59:25;12.70;95.70
14409;DHT22;7289;50.706;4.992;2023-06-04T06:01:53;12.80;96.40
14409;DHT22;7289;50.706;4.992;2023-06-04T06:04:22;13.00;95.90
14409;DHT22;7289;50.706;4.992;2023-06-04T06:06:52;13.10;96.50
14409;DHT22;7289;50.706;4.992;2023-06-04T06:09:21;13.40;96.60
14409;DHT22;7289;50.706;4.992;2023-06-04T06:11:49;13.50;95.60
14409;DHT22;7289;50.706;4.992;2023-06-04T06:14:18;13.70;96.30
14409;DHT22;7289;50.706;4.992;2023-06-04T06:16:46;13.70;95.10
14409;DHT22;7289;50.706;4.992;2023-06-04T06:19:15;13.90;95.20
14409;DHT22;7289;50.706;4.992;2023-06-04T06:21:44;13.80;94.00
14409;DHT22;7289;50.706;4.992;2023-06-04T06:24:14;13.90;94.60
14409;DHT22;7289;50.706;4.992;2023-06-04T06:26:43;13.90;93.80
14409;DHT22;7289;50.706;4.992;2023-06-04T06:29:13;14.10;95.30
14409;DHT22;7289;50.706;4.992;2023-06-04T06:31:42;14.20;94.00
14409;DHT22;7289;50.706;4.992;2023-06-04T06:34:11;14.30;93.70
14409;DHT22;7289;50.706;4.992;2023-06-04T06:36:39;14.40;94.30
14409;DHT22;7289;50.706;4.992;2023-06-04T06:39:07;14.60;93.40
14409;DHT22;7289;50.706;4.992;2023-06-04T06:41:38;14.80;94.20
14409;DHT22;7289;50.706;4.992;2023-06-04T06:44:11;15.00;93.00
14409;DHT22;7289;50.706;4.992;2023-06-04T06:46:39;15.10;93.80
14409;DHT22;7289;50.706;4.992;2023-06-04T06:49:07;15.20;93.50
14409;DHT22;7289;50.706;4.992;2023-06-04T06:51:36;15.40;93.40
14409;DHT22;7289;50.706;4.992;2023-06-04T06:54:04;15.60;94.10
14409;DHT22;7289;50.706;4.992;2023-06-04T06:56:32;15.70;92.60
14409;DHT22;7289;50.706;4.992;2023-06-04T06:59:02;15.70;92.40
14409;DHT22;7289;50.706;4.992;2023-06-04T07:01:30;15.80;92.00
14409;DHT22;7289;50.706;4.992;2023-06-04T07:03:59;16.00;93.30
14409;DHT22;7289;50.706;4.992;2023-06-04T07:06:27;16.10;91.40
14409;DHT22;7289;50.706;4.992;2023-06-04T07:08:56;16.20;91.70
14409;DHT22;7289;50.706;4.992;2023-06-04T07:11:24;16.40;92.70
14409;DHT22;7289;50.706;4.992;2023-06-04T07:13:53;16.30;91.00
14409;DHT22;7289;50.706;4.992;2023-06-04T07:16:23;16.50;92.30
14409;DHT22;7289;50.706;4.992;2023-06-04T07:18:51;16.60;91.50
14409;DHT22;7289;50.706;4.992;2023-06-04T07:21:19;16.70;90.60
14409;DHT22;7289;50.706;4.992;2023-06-04T07:23:50;16.80;90.90
14409;DHT22;7289;50.706;4.992;2023-06-04T07:26:19;16.70;91.00
14409;DHT22;7289;50.706;4.992;2023-06-04T07:28:47;17.00;92.30
14409;DHT22;7289;50.706;4.992;2023-06-04T07:31:16;17.10;90.40
14409;DHT22;7289;50.706;4.992;2023-06-04T07:33:46;17.00;90.60
14409;DHT22;7289;50.706;4.992;2023-06-04T07:36:14;17.10;91.20
14409;DHT22;7289;50.706;4.992;2023-06-04T07:38:43;17.30;90.40
14409;DHT22;7289;50.706;4.992;2023-06-04T07:41:11;17.20;89.00
14409;DHT22;7289;50.706;4.992;2023-06-04T07:43:40;17.10;90.40
14409;DHT22;7289;50.706;4.992;2023-06-04T07:46:08;17.30;89.50
14409;DHT22;7289;50.706;4.992;2023-06-04T07:48:38;17.40;89.50
14409;DHT22;7289;50.706;4.992;2023-06-04T07:51:07;17.50;90.20
14409;DHT22;7289;50.706;4.992;2023-06-04T07:53:36;17.80;90.40
14409;DHT22;7289;50.706;4.992;2023-06-04T07:56:05;18.00;90.70
14409;DHT22;7289;50.706;4.992;2023-06-04T07:58:34;18.20;89.00
14409;DHT22;7289;50.706;4.992;2023-06-04T08:01:02;18.20;88.00
14409;DHT22;7289;50.706;4.992;2023-06-04T08:03:31;18.20;87.10
14409;DHT22;7289;50.706;4.992;2023-06-04T08:06:00;18.10;90.10
14409;DHT22;7289;50.706;4.992;2023-06-04T08:08:32;18.30;86.80
14409;DHT22;7289;50.706;4.992;2023-06-04T08:11:01;18.20;86.90
14409;DHT22;7289;50.706;4.992;2023-06-04T08:13:29;18.50;88.30
14409;DHT22;7289;50.706;4.992;2023-06-04T08:15:57;18.60;88.00
14409;DHT22;7289;50.706;4.992;2023-06-04T08:18:46;18.60;87.30
14409;DHT22;7289;50.706;4.992;2023-06-04T08:21:29;18.80;87.10
14409;DHT22;7289;50.706;4.992;2023-06-04T08:24:08;19.00;86.90
14409;DHT22;7289;50.706;4.992;2023-06-04T08:26:57;19.10;86.90
14409;DHT22;7289;50.706;4.992;2023-06-04T08:29:31;19.20;81.90
14409;DHT22;7289;50.706;4.992;2023-06-04T08:32:20;19.20;84.00
14409;DHT22;7289;50.706;4.992;2023-06-04T08:34:50;19.20;83.80
14409;DHT22;7289;50.706;4.992;2023-06-04T08:37:18;19.40;85.50
14409;DHT22;7289;50.706;4.992;2023-06-04T08:39:48;19.60;86.40
14409;DHT22;7289;50.706;4.992;2023-06-04T08:42:22;19.70;85.80
14409;DHT22;7289;50.706;4.992;2023-06-04T08:44:51;19.80;84.50
14409;DHT22;7289;50.706;4.992;2023-06-04T08:47:21;19.80;84.90
14409;DHT22;7289;50.706;4.992;2023-06-04T08:49:52;19.70;83.70
14409;DHT22;7289;50.706;4.992;2023-06-04T08:52:24;19.70;82.60
14409;DHT22;7289;50.706;4.992;2023-06-04T08:54:54;19.80;83.30
14409;DHT22;7289;50.706;4.992;2023-06-04T08:57:23;20.00;83.30
14409;DHT22;7289;50.706;4.992;2023-06-04T08:59:52;20.10;83.70
14409;DHT22;7289;50.706;4.992;2023-06-04T09:02:21;20.00;82.30
14409;DHT22;7289;50.706;4.992;2023-06-04T09:04:49;20.10;81.80
14409;DHT22;7289;50.706;4.992;2023-06-04T09:07:18;20.10;82.60
14409;DHT22;7289;50.706;4.992;2023-06-04T09:09:47;20.30;81.80
14409;DHT22;7289;50.706;4.992;2023-06-04T09:12:42;20.30;79.70
14409;DHT22;7289;50.706;4.992;2023-06-04T09:15:11;20.30;80.00
14409;DHT22;7289;50.706;4.992;2023-06-04T09:17:39;20.20;78.90
14409;DHT22;7289;50.706;4.992;2023-06-04T09:20:15;20.30;80.80
14409;DHT22;7289;50.706;4.992;2023-06-04T09:22:45;20.40;81.00
14409;DHT22;7289;50.706;4.992;2023-06-04T09:25:20;20.50;80.00
14409;DHT22;7289;50.706;4.992;2023-06-04T09:27:50;20.60;76.00
14409;DHT22;7289;50.706;4.992;2023-06-04T09:30:18;20.60;77.80
14409;DHT22;7289;50.706;4.992;2023-06-04T09:32:47;20.60;76.30
14409;DHT22;7289;50.706;4.992;2023-06-04T09:35:16;20.60;76.80
14409;DHT22;7289;50.706;4.992;2023-06-04T09:37:52;20.50;77.50
14409;DHT22;7289;50.706;4.992;2023-06-04T09:40:21;20.60;78.50
14409;DHT22;7289;50.706;4.992;2023-06-04T09:42:51;20.70;77.70
14409;DHT22;7289;50.706;4.992;2023-06-04T09:45:30;20.80;77.40
14409;DHT22;7289;50.706;4.992;2023-06-04T09:47:59;21.10;76.20
14409;DHT22;7289;50.706;4.992;2023-06-04T09:50:30;21.00;76.10
14409;DHT22;7289;50.706;4.992;2023-06-04T09:52:59;21.00;76.60
14409;DHT22;7289;50.706;4.992;2023-06-04T09:55:28;21.10;74.50
14409;DHT22;7289;50.706;4.992;2023-06-04T09:57:59;21.20;74.40
14409;DHT22;7289;50.706;4.992;2023-06-04T10:00:28;21.30;73.10
14409;DHT22;7289;50.706;4.992;2023-06-04T10:02:58;21.40;72.60
14409;DHT22;7289;50.706;4.992;2023-06-04T10:05:29;21.30;73.30
14409;DHT22;7289;50.706;4.992;2023-06-04T10:08:02;21.30;72.10
14409;DHT22;7289;50.706;4.992;2023-06-04T10:10:34;21.30;70.00
14409;DHT22;7289;50.706;4.992;2023-06-04T10:13:14;21.20;71.20
14409;DHT22;7289;50.706;4.992;2023-06-04T10:15:44;21.30;72.80
14409;DHT22;7289;50.706;4.992;2023-06-04T10:18:13;21.30;72.30
14409;DHT22;7289;50.706;4.992;2023-06-04T10:20:42;21.40;71.30
14409;DHT22;7289;50.706;4.992;2023-06-04T10:23:11;21.50;71.90
14409;DHT22;7289;50.706;4.992;2023-06-04T10:25:39;21.60;74.10
14409;DHT22;7289;50.706;4.992;2023-06-04T10:28:09;21.50;71.30
14409;DHT22;7289;50.706;4.992;2023-06-04T10:30:37;21.50;70.20
14409;DHT22;7289;50.706;4.992;2023-06-04T10:33:06;21.50;70.80
14409;DHT22;7289;50.706;4.992;2023-06-04T10:35:35;21.40;70.20
14409;DHT22;7289;50.706;4.992;2023-06-04T10:38:06;21.60;71.40
14409;DHT22;7289;50.706;4.992;2023-06-04T10:40:35;21.60;69.80
14409;DHT22;7289;50.706;4.992;2023-06-04T10:43:06;21.60;69.20
14409;DHT22;7289;50.706;4.992;2023-06-04T10:45:37;21.60;71.80
14409;DHT22;7289;50.706;4.992;2023-06-04T10:48:06;21.80;68.70
14409;DHT22;7289;50.706;4.992;2023-06-04T10:50:47;21.90;69.00
14409;DHT22;7289;50.706;4.992;2023-06-04T10:53:16;21.90;68.80
14409;DHT22;7289;50.706;4.992;2023-06-04T10:55:45;22.00;72.20
14409;DHT22;7289;50.706;4.992;2023-06-04T10:58:13;22.00;69.50
14409;DHT22;7289;50.706;4.992;2023-06-04T11:00:45;21.90;68.70
14409;DHT22;7289;50.706;4.992;2023-06-04T11:03:16;21.90;68.10
14409;DHT22;7289;50.706;4.992;2023-06-04T11:05:46;22.00;71.30
14409;DHT22;7289;50.706;4.992;2023-06-04T11:08:15;22.10;67.30
14409;DHT22;7289;50.706;4.992;2023-06-04T11:10:54;22.10;68.60
14409;DHT22;7289;50.706;4.992;2023-06-04T11:13:23;22.10;69.90
14409;DHT22;7289;50.706;4.992;2023-06-04T11:15:53;22.20;66.70
14409;DHT22;7289;50.706;4.992;2023-06-04T11:18:23;22.20;65.80
14409;DHT22;7289;50.706;4.992;2023-06-04T11:20:59;22.20;69.00
14409;DHT22;7289;50.706;4.992;2023-06-04T11:23:28;22.20;67.70
14409;DHT22;7289;50.706;4.992;2023-06-04T11:25:56;22.10;67.50
14409;DHT22;7289;50.706;4.992;2023-06-04T11:28:25;22.10;66.20
14409;DHT22;7289;50.706;4.992;2023-06-04T11:30:59;22.20;67.00
14409;DHT22;7289;50.706;4.992;2023-06-04T11:33:30;22.30;67.70
14409;DHT22;7289;50.706;4.992;2023-06-04T11:35:58;22.50;66.90
14409;DHT22;7289;50.706;4.992;2023-06-04T11:38:26;22.70;67.60
14409;DHT22;7289;50.706;4.992;2023-06-04T11:40:57;22.50;66.90
14409;DHT22;7289;50.706;4.992;2023-06-04T11:43:25;22.60;67.90
14409;DHT22;7289;50.706;4.992;2023-06-04T11:45:53;22.80;68.20
14409;DHT22;7289;50.706;4.992;2023-06-04T11:48:24;22.80;67.40
14409;DHT22;7289;50.706;4.992;2023-06-04T11:50:53;22.80;66.60
14409;DHT22;7289;50.706;4.992;2023-06-04T11:53:22;22.80;65.10
14409;DHT22;7289;50.706;4.992;2023-06-04T11:55:50;22.80;67.00
14409;DHT22;7289;50.706;4.992;2023-06-04T11:58:18;22.70;68.00
14409;DHT22;7289;50.706;4.992;2023-06-04T12:00:47;22.80;68.70
14409;DHT22;7289;50.706;4.992;2023-06-04T12:03:15;22.90;67.20
14409;DHT22;7289;50.706;4.992;2023-06-04T12:05:45;23.10;68.80
14409;DHT22;7289;50.706;4.992;2023-06-04T12:08:13;23.20;67.70
14409;DHT22;7289;50.706;4.992;2023-06-04T12:10:42;23.20;64.20
14409;DHT22;7289;50.706;4.992;2023-06-04T12:13:11;23.30;67.40
14409;DHT22;7289;50.706;4.992;2023-06-04T12:15:39;23.30;67.40
14409;DHT22;7289;50.706;4.992;2023-06-04T12:18:07;23.20;67.90
14409;DHT22;7289;50.706;4.992;2023-06-04T12:20:38;23.30;65.90
14409;DHT22;7289;50.706;4.992;2023-06-04T12:23:07;23.50;66.10
14409;DHT22;7289;50.706;4.992;2023-06-04T12:25:36;23.50;63.90
14409;DHT22;7289;50.706;4.992;2023-06-04T12:28:17;23.50;67.00
14409;DHT22;7289;50.706;4.992;2023-06-04T12:30:45;23.50;67.60
14409;DHT22;7289;50.706;4.992;2023-06-04T12:33:14;23.60;64.40
14409;DHT22;7289;50.706;4.992;2023-06-04T12:35:42;23.40;65.30
14409;DHT22;7289;50.706;4.992;2023-06-04T12:38:13;23.40;64.20
14409;DHT22;7289;50.706;4.992;2023-06-04T12:40:41;23.50;61.90
14409;DHT22;7289;50.706;4.992;2023-06-04T12:43:09;23.50;63.50
14409;DHT22;7289;50.706;4.992;2023-06-04T12:45:38;23.60;63.90
14409;DHT22;7289;50.706;4.992;2023-06-04T12:48:06;23.60;61.90
14409;DHT22;7289;50.706;4.992;2023-06-04T12:50:34;23.80;64.10
14409;DHT22;7289;50.706;4.992;2023-06-04T12:53:03;23.90;61.80
14409;DHT22;7289;50.706;4.992;2023-06-04T12:55:32;23.80;62.30
14409;DHT22;7289;50.706;4.992;2023-06-04T12:58:01;23.80;65.30
14409;DHT22;7289;50.706;4.992;2023-06-04T13:00:29;23.80;59.90
14409;DHT22;7289;50.706;4.992;2023-06-04T13:02:57;23.80;64.30
14409;DHT22;7289;50.706;4.992;2023-06-04T13:05:26;24.00;63.20
14409;DHT22;7289;50.706;4.992;2023-06-04T13:07:54;24.10;61.20
14409;DHT22;7289;50.706;4.992;2023-06-04T13:10:23;24.10;64.70
14409;DHT22;7289;50.706;4.992;2023-06-04T13:12:53;24.20;63.40
14409;DHT22;7289;50.706;4.992;2023-06-04T13:15:21;24.20;63.10
14409;DHT22;7289;50.706;4.992;2023-06-04T13:17:49;24.30;63.00
14409;DHT22;7289;50.706;4.992;2023-06-04T13:20:18;24.40;63.70
14409;DHT22;7289;50.706;4.992;2023-06-04T13:22:46;24.40;62.80
14409;DHT22;7289;50.706;4.992;2023-06-04T13:25:15;24.20;61.70
14409;DHT22;7289;50.706;4.992;2023-06-04T13:27:44;24.40;64.10
14409;DHT22;7289;50.706;4.992;2023-06-04T13:30:14;24.40;64.50
14409;DHT22;7289;50.706;4.992;2023-06-04T13:32:43;24.40;63.00
14409;DHT22;7289;50.706;4.992;2023-06-04T13:35:11;24.40;59.40
14409;DHT22;7289;50.706;4.992;2023-06-04T13:37:40;24.40;59.30
14409;DHT22;7289;50.706;4.992;2023-06-04T13:40:09;24.30;63.40
14409;DHT22;7289;50.706;4.992;2023-06-04T13:42:37;24.40;60.60
14409;DHT22;7289;50.706;4.992;2023-06-04T13:45:06;24.60;62.70
14409;DHT22;7289;50.706;4.992;2023-06-04T13:47:36;24.70;59.70
14409;DHT22;7289;50.706;4.992;2023-06-04T13:50:05;24.90;62.60
14409;DHT22;7289;50.706;4.992;2023-06-04T13:52:34;25.10;61.10
14409;DHT22;7289;50.706;4.992;2023-06-04T13:55:02;24.90;58.30
14409;DHT22;7289;50.706;4.992;2023-06-04T13:57:31;24.90;62.20
14409;DHT22;7289;50.706;4.992;2023-06-04T13:59:59;25.00;58.60
14409;DHT22;7289;50.706;4.992;2023-06-04T14:02:30;25.10;59.90
14409;DHT22;7289;50.706;4.992;2023-06-04T14:05:00;25.20;59.50
14409;DHT22;7289;50.706;4.992;2023-06-04T14:07:28;25.30;59.00
14409;DHT22;7289;50.706;4.992;2023-06-04T14:09:56;25.50;57.90
14409;DHT22;7289;50.706;4.992;2023-06-04T14:12:25;25.40;57.70
14409;DHT22;7289;50.706;4.992;2023-06-04T14:14:53;25.10;60.30
14409;DHT22;7289;50.706;4.992;2023-06-04T14:17:21;25.00;58.30
14409;DHT22;7289;50.706;4.992;2023-06-04T14:19:50;25.10;57.30
14409;DHT22;7289;50.706;4.992;2023-06-04T14:22:19;25.30;60.10
14409;DHT22;7289;50.706;4.992;2023-06-04T14:24:47;25.40;59.10
14409;DHT22;7289;50.706;4.992;2023-06-04T14:27:16;25.50;61.10
14409;DHT22;7289;50.706;4.992;2023-06-04T14:29:44;25.50;58.30
14409;DHT22;7289;50.706;4.992;2023-06-04T14:32:12;25.30;57.00
14409;DHT22;7289;50.706;4.992;2023-06-04T14:34:41;25.30;59.70
14409;DHT22;7289;50.706;4.992;2023-06-04T14:37:09;25.30;59.20
14409;DHT22;7289;50.706;4.992;2023-06-04T14:39:39;25.40;60.80
14409;DHT22;7289;50.706;4.992;2023-06-04T14:42:07;25.50;60.20
14409;DHT22;7289;50.706;4.992;2023-06-04T14:44:35;25.50;60.30
14409;DHT22;7289;50.706;4.992;2023-06-04T14:47:04;25.60;62.30
14409;DHT22;7289;50.706;4.992;2023-06-04T14:49:33;25.40;58.20
14409;DHT22;7289;50.706;4.992;2023-06-04T14:52:01;25.40;60.40
14409;DHT22;7289;50.706;4.992;2023-06-04T14:54:30;25.50;57.60
14409;DHT22;7289;50.706;4.992;2023-06-04T14:56:59;25.60;58.40
14409;DHT22;7289;50.706;4.992;2023-06-04T14:59:28;25.70;59.80
14409;DHT22;7289;50.706;4.992;2023-06-04T15:01:56;25.80;57.30
14409;DHT22;7289;50.706;4.992;2023-06-04T15:04:25;25.70;58.40
14409;DHT22;7289;50.706;4.992;2023-06-04T15:06:53;25.40;57.50
14409;DHT22;7289;50.706;4.992;2023-06-04T15:09:21;25.30;58.40
14409;DHT22;7289;50.706;4.992;2023-06-04T15:11:50;25.40;60.90
14409;DHT22;7289;50.706;4.992;2023-06-04T15:14:19;25.40;58.10
14409;DHT22;7289;50.706;4.992;2023-06-04T15:16:47;25.40;59.10
14409;DHT22;7289;50.706;4.992;2023-06-04T15:19:16;25.60;59.20
14409;DHT22;7289;50.706;4.992;2023-06-04T15:21:44;25.60;59.40
14409;DHT22;7289;50.706;4.992;2023-06-04T15:24:12;25.70;59.10
14409;DHT22;7289;50.706;4.992;2023-06-04T15:26:41;25.80;57.90
14409;DHT22;7289;50.706;4.992;2023-06-04T15:29:09;25.80;60.10
14409;DHT22;7289;50.706;4.992;2023-06-04T15:31:39;25.80;57.60
14409;DHT22;7289;50.706;4.992;2023-06-04T15:34:07;25.60;59.50
14409;DHT22;7289;50.706;4.992;2023-06-04T15:36:36;25.50;57.30
14409;DHT22;7289;50.706;4.992;2023-06-04T15:39:05;25.60;57.60
14409;DHT22;7289;50.706;4.992;2023-06-04T15:41:33;25.70;57.80
14409;DHT22;7289;50.706;4.992;2023-06-04T15:44:01;25.60;56.00
14409;DHT22;7289;50.706;4.992;2023-06-04T15:46:30;25.80;59.70
14409;DHT22;7289;50.706;4.992;2023-06-04T15:49:05;25.80;54.30
14409;DHT22;7289;50.706;4.992;2023-06-04T15:51:34;25.70;55.40
14409;DHT22;7289;50.706;4.992;2023-06-04T15:54:02;25.60;56.60
14409;DHT22;7289;50.706;4.992;2023-06-04T15:56:31;25.40;56.90
14409;DHT22;7289;50.706;4.992;2023-06-04T15:59:00;25.50;56.00
14409;DHT22;7289;50.706;4.992;2023-06-04T16:01:28;25.40;55.30
14409;DHT22;7289;50.706;4.992;2023-06-04T16:03:58;25.50;57.80
14409;DHT22;7289;50.706;4.992;2023-06-04T16:06:27;25.60;57.60